sensor_id;sensor_type;location;lat;lon;timestamp;pressure;altitude;pressure_sealevel;temperature;humidity
65659;BME280;60181;53.258;6.932;2023-12-07T00:04:04;101935.63;;;13.80;60.62
65659;BME280;60181;53.258;6.932;2023-12-07T00:08:16;101939.08;;;13.80;60.71
65659;BME280;60181;53.258;6.932;2023-12-07T00:12:28;101941.30;;;13.80;60.74
65659;BME280;60181;53.258;6.932;2023-12-07T00:16:40;101944.44;;;13.80;60.87
65659;BME280;60181;53.258;6.932;2023-12-07T00:20:52;101948.05;;;13.80;60.88
65659;BME280;60181;53.258;6.932;2023-12-07T00:25:05;101949.54;;;13.80;60.88
65659;BME280;60181;53.258;6.932;2023-12-07T00:29:16;101949.20;;;13.80;60.87
65659;BME280;60181;53.258;6.932;2023-12-07T00:33:28;101949.78;;;13.80;60.93
65659;BME280;60181;53.258;6.932;2023-12-07T00:37:40;101950.44;;;13.80;61.01
65659;BME280;60181;53.258;6.932;2023-12-07T00:41:52;101950.78;;;13.80;60.96
65659;BME280;60181;53.258;6.932;2023-12-07T00:46:06;101951.43;;;13.80;60.98
65659;BME280;60181;53.258;6.932;2023-12-07T00:50:17;101953.08;;;13.80;61.02
65659;BME280;60181;53.258;6.932;2023-12-07T00:54:28;101954.94;;;13.79;61.04
65659;BME280;60181;53.258;6.932;2023-12-07T00:58:40;101957.73;;;13.79;61.25
65659;BME280;60181;53.258;6.932;2023-12-07T01:02:52;101960.05;;;13.79;61.27
65659;BME280;60181;53.258;6.932;2023-12-07T01:07:04;101962.62;;;13.80;61.31
65659;BME280;60181;53.258;6.932;2023-12-07T01:11:16;101966.09;;;13.80;61.45
65659;BME280;60181;53.258;6.932;2023-12-07T01:15:28;101970.53;;;13.80;61.72
65659;BME280;60181;53.258;6.932;2023-12-07T01:19:40;101974.98;;;13.80;61.66
65659;BME280;60181;53.258;6.932;2023-12-07T01:23:52;101978.94;;;13.80;61.78
65659;BME280;60181;53.258;6.932;2023-12-07T01:28:04;101981.62;;;13.79;61.60
65659;BME280;60181;53.258;6.932;2023-12-07T01:32:16;101984.75;;;13.79;61.55
65659;BME280;60181;53.258;6.932;2023-12-07T01:36:28;101986.84;;;13.80;61.47
65659;BME280;60181;53.258;6.932;2023-12-07T01:40:40;101987.05;;;13.79;61.53
65659;BME280;60181;53.258;6.932;2023-12-07T01:44:52;101988.29;;;13.79;61.53
65659;BME280;60181;53.258;6.932;2023-12-07T01:49:04;101989.28;;;13.79;61.38
65659;BME280;60181;53.258;6.932;2023-12-07T01:53:16;101990.77;;;13.79;61.59
65659;BME280;60181;53.258;6.932;2023-12-07T01:57:28;101992.08;;;13.79;61.64
65659;BME280;60181;53.258;6.932;2023-12-07T02:01:40;101992.74;;;13.79;61.46
65659;BME280;60181;53.258;6.932;2023-12-07T02:05:53;101992.94;;;13.80;61.43
65659;BME280;60181;53.258;6.932;2023-12-07T02:10:05;101993.76;;;13.80;61.58
65659;BME280;60181;53.258;6.932;2023-12-07T02:14:16;101995.98;;;13.80;61.64
65659;BME280;60181;53.258;6.932;2023-12-07T02:18:30;101998.13;;;13.80;61.60
65659;BME280;60181;53.258;6.932;2023-12-07T02:22:42;101999.49;;;13.81;61.72
65659;BME280;60181;53.258;6.932;2023-12-07T02:26:52;101998.91;;;13.81;61.88
65659;BME280;60181;53.258;6.932;2023-12-07T02:31:04;101999.64;;;13.81;61.77
65659;BME280;60181;53.258;6.932;2023-12-07T02:35:16;102001.54;;;13.81;61.61
65659;BME280;60181;53.258;6.932;2023-12-07T02:39:28;102001.45;;;13.81;61.64
65659;BME280;60181;53.258;6.932;2023-12-07T02:43:40;102000.80;;;13.81;61.81
65659;BME280;60181;53.258;6.932;2023-12-07T02:47:52;102001.34;;;13.80;62.04
65659;BME280;60181;53.258;6.932;2023-12-07T02:52:05;102001.95;;;13.79;61.93
65659;BME280;60181;53.258;6.932;2023-12-07T02:56:16;102002.95;;;13.77;61.82
65659;BME280;60181;53.258;6.932;2023-12-07T03:00:28;102003.46;;;13.75;61.68
65659;BME280;60181;53.258;6.932;2023-12-07T03:04:40;102005.89;;;13.74;61.48
65659;BME280;60181;53.258;6.932;2023-12-07T03:08:52;102007.42;;;13.73;61.39
65659;BME280;60181;53.258;6.932;2023-12-07T03:13:04;102008.53;;;13.72;61.33
65659;BME280;60181;53.258;6.932;2023-12-07T03:17:16;102009.65;;;13.71;61.21
65659;BME280;60181;53.258;6.932;2023-12-07T03:21:28;102010.92;;;13.69;61.25
65659;BME280;60181;53.258;6.932;2023-12-07T03:25:40;102011.95;;;13.68;61.19
65659;BME280;60181;53.258;6.932;2023-12-07T03:29:52;102013.40;;;13.67;61.14
65659;BME280;60181;53.258;6.932;2023-12-07T03:34:04;102014.68;;;13.66;61.14
65659;BME280;60181;53.258;6.932;2023-12-07T03:38:16;102014.23;;;13.65;61.08
65659;BME280;60181;53.258;6.932;2023-12-07T03:42:28;102012.50;;;13.64;61.01
65659;BME280;60181;53.258;6.932;2023-12-07T03:46:40;102011.80;;;13.63;61.04
65659;BME280;60181;53.258;6.932;2023-12-07T03:50:52;102011.77;;;13.62;60.99
65659;BME280;60181;53.258;6.932;2023-12-07T03:55:04;102011.40;;;13.62;60.94
65659;BME280;60181;53.258;6.932;2023-12-07T03:59:16;102009.22;;;13.60;60.93
65659;BME280;60181;53.258;6.932;2023-12-07T04:03:28;102008.06;;;13.60;60.85
65659;BME280;60181;53.258;6.932;2023-12-07T04:07:40;102007.28;;;13.59;60.80
65659;BME280;60181;53.258;6.932;2023-12-07T04:11:52;102006.59;;;13.58;60.87
65659;BME280;60181;53.258;6.932;2023-12-07T04:16:04;102007.33;;;13.57;60.78
65659;BME280;60181;53.258;6.932;2023-12-07T04:20:16;102008.94;;;13.57;60.81
65659;BME280;60181;53.258;6.932;2023-12-07T04:24:28;102011.90;;;13.56;60.71
65659;BME280;60181;53.258;6.932;2023-12-07T04:28:40;102013.92;;;13.56;60.73
65659;BME280;60181;53.258;6.932;2023-12-07T04:32:52;102016.72;;;13.55;60.67
65659;BME280;60181;53.258;6.932;2023-12-07T04:37:04;102019.48;;;13.55;60.70
65659;BME280;60181;53.258;6.932;2023-12-07T04:41:16;102021.95;;;13.54;60.65
65659;BME280;60181;53.258;6.932;2023-12-07T04:45:28;102025.28;;;13.53;60.65
65659;BME280;60181;53.258;6.932;2023-12-07T04:49:40;102028.21;;;13.53;60.60
65659;BME280;60181;53.258;6.932;2023-12-07T04:53:52;102031.75;;;13.52;60.66
65659;BME280;60181;53.258;6.932;2023-12-07T04:58:04;102033.10;;;13.53;60.61
65659;BME280;60181;53.258;6.932;2023-12-07T05:02:16;102033.39;;;13.54;60.65
65659;BME280;60181;53.258;6.932;2023-12-07T05:06:28;102032.78;;;13.56;61.04
65659;BME280;60181;53.258;6.932;2023-12-07T05:10:40;102032.56;;;13.57;61.01
65659;BME280;60181;53.258;6.932;2023-12-07T05:14:52;102033.54;;;13.57;61.04
65659;BME280;60181;53.258;6.932;2023-12-07T05:19:04;102033.76;;;13.55;60.97
65659;BME280;60181;53.258;6.932;2023-12-07T05:23:16;102034.21;;;13.54;60.85
65659;BME280;60181;53.258;6.932;2023-12-07T05:27:28;102034.92;;;13.54;60.77
65659;BME280;60181;53.258;6.932;2023-12-07T05:31:40;102035.00;;;13.53;60.65
65659;BME280;60181;53.258;6.932;2023-12-07T05:35:52;102035.38;;;13.52;60.72
65659;BME280;60181;53.258;6.932;2023-12-07T05:40:04;102035.78;;;13.52;60.65
65659;BME280;60181;53.258;6.932;2023-12-07T05:44:16;102036.31;;;13.51;60.58
65659;BME280;60181;53.258;6.932;2023-12-07T05:48:28;102036.61;;;13.50;60.60
65659;BME280;60181;53.258;6.932;2023-12-07T05:52:40;102035.25;;;13.49;60.46
65659;BME280;60181;53.258;6.932;2023-12-07T05:56:52;102035.79;;;13.48;60.48
65659;BME280;60181;53.258;6.932;2023-12-07T06:01:04;102034.59;;;13.47;60.45
65659;BME280;60181;53.258;6.932;2023-12-07T06:05:16;102033.69;;;13.46;60.41
65659;BME280;60181;53.258;6.932;2023-12-07T06:09:28;102033.32;;;13.46;60.36
65659;BME280;60181;53.258;6.932;2023-12-07T06:13:40;102033.40;;;13.46;60.37
65659;BME280;60181;53.258;6.932;2023-12-07T06:17:52;102033.86;;;13.45;60.32
65659;BME280;60181;53.258;6.932;2023-12-07T06:22:04;102034.47;;;13.45;60.46
65659;BME280;60181;53.258;6.932;2023-12-07T06:26:16;102034.34;;;13.47;60.16
65659;BME280;60181;53.258;6.932;2023-12-07T06:30:28;102034.84;;;13.49;61.22
65659;BME280;60181;53.258;6.932;2023-12-07T06:34:40;102036.49;;;13.49;61.17
65659;BME280;60181;53.258;6.932;2023-12-07T06:38:52;102040.07;;;13.48;61.24
65659;BME280;60181;53.258;6.932;2023-12-07T06:43:04;102041.76;;;13.47;61.01
65659;BME280;60181;53.258;6.932;2023-12-07T06:47:16;102042.58;;;13.47;60.71
65659;BME280;60181;53.258;6.932;2023-12-07T06:51:28;102043.98;;;13.47;60.61
65659;BME280;60181;53.258;6.932;2023-12-07T06:55:40;102044.75;;;13.47;60.51
65659;BME280;60181;53.258;6.932;2023-12-07T06:59:52;102045.75;;;13.48;60.72
65659;BME280;60181;53.258;6.932;2023-12-07T07:04:04;102049.16;;;13.49;60.60
65659;BME280;60181;53.258;6.932;2023-12-07T07:08:16;102052.78;;;13.49;60.45
65659;BME280;60181;53.258;6.932;2023-12-07T07:12:28;102057.15;;;13.49;60.43
65659;BME280;60181;53.258;6.932;2023-12-07T07:16:40;102058.29;;;13.49;60.44
65659;BME280;60181;53.258;6.932;2023-12-07T07:20:52;102060.15;;;13.50;60.42
65659;BME280;60181;53.258;6.932;2023-12-07T07:25:04;102061.05;;;13.50;60.38
65659;BME280;60181;53.258;6.932;2023-12-07T07:29:16;102061.80;;;13.50;60.34
65659;BME280;60181;53.258;6.932;2023-12-07T07:33:28;102063.36;;;13.52;61.66
65659;BME280;60181;53.258;6.932;2023-12-07T07:37:40;102067.25;;;13.60;61.31
65659;BME280;60181;53.258;6.932;2023-12-07T07:41:52;102069.26;;;13.63;61.37
65659;BME280;60181;53.258;6.932;2023-12-07T07:46:04;102070.62;;;13.64;61.18
65659;BME280;60181;53.258;6.932;2023-12-07T07:50:16;102072.94;;;13.65;61.13
65659;BME280;60181;53.258;6.932;2023-12-07T07:54:28;102074.66;;;13.65;61.03
65659;BME280;60181;53.258;6.932;2023-12-07T07:58:40;102075.23;;;13.65;60.99
65659;BME280;60181;53.258;6.932;2023-12-07T08:02:52;102076.56;;;13.65;60.84
65659;BME280;60181;53.258;6.932;2023-12-07T08:07:04;102078.61;;;13.64;60.90
65659;BME280;60181;53.258;6.932;2023-12-07T08:11:16;102080.39;;;13.64;60.80
65659;BME280;60181;53.258;6.932;2023-12-07T08:15:28;102082.53;;;13.64;60.78
65659;BME280;60181;53.258;6.932;2023-12-07T08:19:41;102083.84;;;13.64;60.74
65659;BME280;60181;53.258;6.932;2023-12-07T08:23:52;102085.49;;;13.64;60.70
65659;BME280;60181;53.258;6.932;2023-12-07T08:28:04;102088.45;;;13.64;60.72
65659;BME280;60181;53.258;6.932;2023-12-07T08:32:16;102089.06;;;13.64;60.56
65659;BME280;60181;53.258;6.932;2023-12-07T08:36:28;102089.06;;;13.64;60.63
65659;BME280;60181;53.258;6.932;2023-12-07T08:40:40;102088.98;;;13.64;60.61
65659;BME280;60181;53.258;6.932;2023-12-07T08:44:52;102088.45;;;13.65;60.50
65659;BME280;60181;53.258;6.932;2023-12-07T08:49:04;102087.22;;;13.66;60.49
65659;BME280;60181;53.258;6.932;2023-12-07T08:53:16;102085.69;;;13.67;60.44
65659;BME280;60181;53.258;6.932;2023-12-07T08:57:28;102084.45;;;13.67;60.45
65659;BME280;60181;53.258;6.932;2023-12-07T09:01:40;102085.24;;;13.68;60.46
65659;BME280;60181;53.258;6.932;2023-12-07T09:05:52;102084.94;;;13.71;62.06
65659;BME280;60181;53.258;6.932;2023-12-07T09:10:04;102084.43;;;13.82;61.55
65659;BME280;60181;53.258;6.932;2023-12-07T09:14:16;102082.22;;;13.92;61.28
65659;BME280;60181;53.258;6.932;2023-12-07T09:18:28;102081.82;;;14.02;61.40
65659;BME280;60181;53.258;6.932;2023-12-07T09:22:43;102081.72;;;14.09;63.24
65659;BME280;60181;53.258;6.932;2023-12-07T09:26:52;102082.08;;;14.15;63.37
65659;BME280;60181;53.258;6.932;2023-12-07T09:31:04;102083.04;;;14.19;63.29
65659;BME280;60181;53.258;6.932;2023-12-07T09:35:16;102084.92;;;14.24;63.94
65659;BME280;60181;53.258;6.932;2023-12-07T09:39:28;102087.17;;;14.29;65.37
65659;BME280;60181;53.258;6.932;2023-12-07T09:43:40;102088.67;;;14.35;66.83
65659;BME280;60181;53.258;6.932;2023-12-07T09:47:52;102090.45;;;14.41;64.02
65659;BME280;60181;53.258;6.932;2023-12-07T09:52:04;102092.33;;;14.46;66.79
65659;BME280;60181;53.258;6.932;2023-12-07T09:56:16;102093.84;;;14.50;68.75
65659;BME280;60181;53.258;6.932;2023-12-07T10:00:28;102094.48;;;14.54;66.59
65659;BME280;60181;53.258;6.932;2023-12-07T10:04:40;102095.68;;;14.58;65.18
65659;BME280;60181;53.258;6.932;2023-12-07T10:08:53;102095.42;;;14.63;65.53
65659;BME280;60181;53.258;6.932;2023-12-07T10:13:04;102093.81;;;14.68;65.99
65659;BME280;60181;53.258;6.932;2023-12-07T10:17:16;102092.69;;;14.72;65.96
65659;BME280;60181;53.258;6.932;2023-12-07T10:21:31;102091.65;;;14.72;67.42
65659;BME280;60181;53.258;6.932;2023-12-07T10:25:40;102089.09;;;14.72;67.26
65659;BME280;60181;53.258;6.932;2023-12-07T10:29:52;102086.00;;;14.71;68.90
65659;BME280;60181;53.258;6.932;2023-12-07T10:34:06;102082.34;;;14.70;69.90
65659;BME280;60181;53.258;6.932;2023-12-07T10:38:16;102077.57;;;14.68;69.50
65659;BME280;60181;53.258;6.932;2023-12-07T10:42:28;102074.33;;;14.66;69.13
65659;BME280;60181;53.258;6.932;2023-12-07T10:46:40;102072.45;;;14.64;69.00
65659;BME280;60181;53.258;6.932;2023-12-07T10:50:52;102070.32;;;14.62;68.95
65659;BME280;60181;53.258;6.932;2023-12-07T10:55:05;102069.02;;;14.60;68.71
65659;BME280;60181;53.258;6.932;2023-12-07T10:59:16;102066.35;;;14.58;68.42
65659;BME280;60181;53.258;6.932;2023-12-07T11:03:28;102061.52;;;14.57;68.39
65659;BME280;60181;53.258;6.932;2023-12-07T11:07:48;102055.35;;;14.55;68.31
65659;BME280;60181;53.258;6.932;2023-12-07T11:11:56;102050.42;;;14.53;68.07
65659;BME280;60181;53.258;6.932;2023-12-07T11:16:04;102046.26;;;14.51;67.87
65659;BME280;60181;53.258;6.932;2023-12-07T11:20:19;102041.94;;;14.50;67.64
65659;BME280;60181;53.258;6.932;2023-12-07T11:24:28;102037.95;;;14.49;67.37
65659;BME280;60181;53.258;6.932;2023-12-07T11:28:40;102036.75;;;14.48;67.14
65659;BME280;60181;53.258;6.932;2023-12-07T11:32:52;102035.65;;;14.47;66.85
65659;BME280;60181;53.258;6.932;2023-12-07T11:37:04;102034.45;;;14.46;66.59
65659;BME280;60181;53.258;6.932;2023-12-07T11:41:15;102032.03;;;14.44;66.52
65659;BME280;60181;53.258;6.932;2023-12-07T11:45:40;102027.55;;;14.43;66.17
65659;BME280;60181;53.258;6.932;2023-12-07T11:49:39;102024.05;;;14.42;66.05
65659;BME280;60181;53.258;6.932;2023-12-07T11:53:51;102021.12;;;14.42;65.90
65659;BME280;60181;53.258;6.932;2023-12-07T11:58:03;102016.60;;;14.41;65.77
65659;BME280;60181;53.258;6.932;2023-12-07T12:02:15;102012.52;;;14.40;65.72
65659;BME280;60181;53.258;6.932;2023-12-07T12:06:28;102010.02;;;14.40;65.63
65659;BME280;60181;53.258;6.932;2023-12-07T12:10:40;102008.28;;;14.39;65.55
65659;BME280;60181;53.258;6.932;2023-12-07T12:14:51;102007.59;;;14.38;65.37
65659;BME280;60181;53.258;6.932;2023-12-07T12:19:03;102005.19;;;14.38;65.33
65659;BME280;60181;53.258;6.932;2023-12-07T12:23:15;102002.94;;;14.37;65.39
65659;BME280;60181;53.258;6.932;2023-12-07T12:27:27;102000.72;;;14.37;65.24
65659;BME280;60181;53.258;6.932;2023-12-07T12:31:39;101997.74;;;14.36;65.20
65659;BME280;60181;53.258;6.932;2023-12-07T12:36:07;101994.98;;;14.36;65.18
65659;BME280;60181;53.258;6.932;2023-12-07T12:40:07;101992.10;;;14.35;65.18
65659;BME280;60181;53.258;6.932;2023-12-07T12:44:15;101987.78;;;14.35;65.54
65659;BME280;60181;53.258;6.932;2023-12-07T12:48:27;101981.23;;;14.34;65.62
65659;BME280;60181;53.258;6.932;2023-12-07T12:52:40;101977.83;;;14.33;65.35
65659;BME280;60181;53.258;6.932;2023-12-07T12:56:51;101974.91;;;14.31;65.35
65659;BME280;60181;53.258;6.932;2023-12-07T13:01:04;101969.59;;;14.30;65.22
65659;BME280;60181;53.258;6.932;2023-12-07T13:05:16;101962.97;;;14.29;65.23
65659;BME280;60181;53.258;6.932;2023-12-07T13:09:27;101955.59;;;14.28;65.07
65659;BME280;60181;53.258;6.932;2023-12-07T13:13:39;101948.64;;;14.27;65.09
65659;BME280;60181;53.258;6.932;2023-12-07T13:17:51;101943.00;;;14.26;65.12
65659;BME280;60181;53.258;6.932;2023-12-07T13:22:04;101939.46;;;14.25;65.01
65659;BME280;60181;53.258;6.932;2023-12-07T13:26:15;101934.15;;;14.24;64.99
65659;BME280;60181;53.258;6.932;2023-12-07T13:30:27;101930.53;;;14.25;65.47
65659;BME280;60181;53.258;6.932;2023-12-07T13:34:39;101928.28;;;14.26;65.30
65659;BME280;60181;53.258;6.932;2023-12-07T13:38:51;101925.23;;;14.27;65.06
65659;BME280;60181;53.258;6.932;2023-12-07T13:43:03;101922.89;;;14.26;65.38
65659;BME280;60181;53.258;6.932;2023-12-07T13:47:17;101922.74;;;14.26;65.43
65659;BME280;60181;53.258;6.932;2023-12-07T13:51:27;101922.13;;;14.25;65.37
65659;BME280;60181;53.258;6.932;2023-12-07T13:55:39;101919.45;;;14.24;65.27
65659;BME280;60181;53.258;6.932;2023-12-07T13:59:52;101918.59;;;14.23;65.32
65659;BME280;60181;53.258;6.932;2023-12-07T14:04:03;101919.33;;;14.22;65.09
65659;BME280;60181;53.258;6.932;2023-12-07T14:08:15;101920.04;;;14.21;65.05
65659;BME280;60181;53.258;6.932;2023-12-07T14:12:27;101919.95;;;14.21;65.08
65659;BME280;60181;53.258;6.932;2023-12-07T14:16:39;101918.77;;;14.20;65.09
65659;BME280;60181;53.258;6.932;2023-12-07T14:20:51;101917.17;;;14.19;64.92
65659;BME280;60181;53.258;6.932;2023-12-07T14:25:04;101916.35;;;14.19;64.90
65659;BME280;60181;53.258;6.932;2023-12-07T14:29:15;101914.99;;;14.18;64.84
65659;BME280;60181;53.258;6.932;2023-12-07T14:33:27;101914.54;;;14.17;64.79
65659;BME280;60181;53.258;6.932;2023-12-07T14:37:39;101914.79;;;14.17;64.81
65659;BME280;60181;53.258;6.932;2023-12-07T14:41:51;101914.43;;;14.16;64.87
65659;BME280;60181;53.258;6.932;2023-12-07T14:46:05;101916.21;;;14.15;64.82
65659;BME280;60181;53.258;6.932;2023-12-07T14:50:15;101918.92;;;14.14;64.72
65659;BME280;60181;53.258;6.932;2023-12-07T14:54:27;101919.55;;;14.14;64.72
65659;BME280;60181;53.258;6.932;2023-12-07T14:58:39;101918.56;;;14.13;64.66
65659;BME280;60181;53.258;6.932;2023-12-07T15:02:51;101918.03;;;14.13;64.64
65659;BME280;60181;53.258;6.932;2023-12-07T15:07:03;101918.12;;;14.12;64.63
65659;BME280;60181;53.258;6.932;2023-12-07T15:11:15;101916.30;;;14.12;64.62
65659;BME280;60181;53.258;6.932;2023-12-07T15:15:27;101913.64;;;14.11;64.58
65659;BME280;60181;53.258;6.932;2023-12-07T15:19:39;101912.15;;;14.11;64.66
65659;BME280;60181;53.258;6.932;2023-12-07T15:23:51;101909.73;;;14.10;64.57
65659;BME280;60181;53.258;6.932;2023-12-07T15:28:03;101907.83;;;14.10;64.53
65659;BME280;60181;53.258;6.932;2023-12-07T15:32:15;101903.22;;;14.10;65.19
65659;BME280;60181;53.258;6.932;2023-12-07T15:36:27;101899.83;;;14.12;64.86
65659;BME280;60181;53.258;6.932;2023-12-07T15:40:39;101896.32;;;14.14;64.77
65659;BME280;60181;53.258;6.932;2023-12-07T15:44:51;101893.05;;;14.14;64.86
65659;BME280;60181;53.258;6.932;2023-12-07T15:49:03;101890.42;;;14.14;64.86
65659;BME280;60181;53.258;6.932;2023-12-07T15:53:15;101885.89;;;14.15;64.79
65659;BME280;60181;53.258;6.932;2023-12-07T15:57:27;101879.79;;;14.15;64.79
65659;BME280;60181;53.258;6.932;2023-12-07T16:01:39;101873.03;;;14.15;64.84
65659;BME280;60181;53.258;6.932;2023-12-07T16:05:51;101866.03;;;14.14;64.68
65659;BME280;60181;53.258;6.932;2023-12-07T16:10:03;101860.10;;;14.14;64.67
65659;BME280;60181;53.258;6.932;2023-12-07T16:14:15;101853.83;;;14.14;64.62
65659;BME280;60181;53.258;6.932;2023-12-07T16:18:27;101846.31;;;14.14;64.51
65659;BME280;60181;53.258;6.932;2023-12-07T16:22:39;101839.54;;;14.14;64.66
65659;BME280;60181;53.258;6.932;2023-12-07T16:26:51;101835.27;;;14.14;64.49
65659;BME280;60181;53.258;6.932;2023-12-07T16:31:05;101829.91;;;14.14;64.37
65659;BME280;60181;53.258;6.932;2023-12-07T16:35:15;101826.20;;;14.13;64.32
65659;BME280;60181;53.258;6.932;2023-12-07T16:39:28;101819.74;;;14.13;64.32
65659;BME280;60181;53.258;6.932;2023-12-07T16:43:39;101810.77;;;14.13;64.31
65659;BME280;60181;53.258;6.932;2023-12-07T16:47:51;101802.44;;;14.12;64.24
65659;BME280;60181;53.258;6.932;2023-12-07T16:52:03;101794.03;;;14.12;64.39
65659;BME280;60181;53.258;6.932;2023-12-07T16:56:15;101786.10;;;14.11;64.34
65659;BME280;60181;53.258;6.932;2023-12-07T17:00:27;101780.82;;;14.11;64.21
65659;BME280;60181;53.258;6.932;2023-12-07T17:04:39;101776.95;;;14.11;64.19
65659;BME280;60181;53.258;6.932;2023-12-07T17:08:51;101774.80;;;14.11;64.08
65659;BME280;60181;53.258;6.932;2023-12-07T17:13:03;101771.92;;;14.11;64.12
65659;BME280;60181;53.258;6.932;2023-12-07T17:17:15;101770.11;;;14.11;64.07
65659;BME280;60181;53.258;6.932;2023-12-07T17:21:27;101768.30;;;14.11;64.27
65659;BME280;60181;53.258;6.932;2023-12-07T17:25:39;101764.67;;;14.11;64.25
65659;BME280;60181;53.258;6.932;2023-12-07T17:29:51;101762.37;;;14.11;64.08
65659;BME280;60181;53.258;6.932;2023-12-07T17:34:03;101760.06;;;14.11;64.25
65659;BME280;60181;53.258;6.932;2023-12-07T17:38:15;101759.89;;;14.11;64.23
65659;BME280;60181;53.258;6.932;2023-12-07T17:42:27;101758.91;;;14.11;64.03
65659;BME280;60181;53.258;6.932;2023-12-07T17:46:39;101756.16;;;14.11;64.03
65659;BME280;60181;53.258;6.932;2023-12-07T17:50:51;101750.31;;;14.10;64.01
65659;BME280;60181;53.258;6.932;2023-12-07T17:55:03;101743.47;;;14.10;63.95
65659;BME280;60181;53.258;6.932;2023-12-07T17:59:15;101736.63;;;14.10;63.86
65659;BME280;60181;53.258;6.932;2023-12-07T18:03:27;101734.38;;;14.10;63.91
65659;BME280;60181;53.258;6.932;2023-12-07T18:07:39;101730.22;;;14.13;65.14
65659;BME280;60181;53.258;6.932;2023-12-07T18:11:52;101727.48;;;14.16;64.27
65659;BME280;60181;53.258;6.932;2023-12-07T18:16:03;101725.78;;;14.17;64.32
65659;BME280;60181;53.258;6.932;2023-12-07T18:20:15;101723.55;;;14.17;64.66
65659;BME280;60181;53.258;6.932;2023-12-07T18:24:27;101721.33;;;14.17;64.54
65659;BME280;60181;53.258;6.932;2023-12-07T18:28:40;101718.61;;;14.17;64.48
65659;BME280;60181;53.258;6.932;2023-12-07T18:32:51;101715.06;;;14.17;64.64
65659;BME280;60181;53.258;6.932;2023-12-07T18:37:03;101712.09;;;14.17;64.47
65659;BME280;60181;53.258;6.932;2023-12-07T18:41:15;101705.89;;;14.16;64.60
65659;BME280;60181;53.258;6.932;2023-12-07T18:45:27;101697.89;;;14.16;64.50
65659;BME280;60181;53.258;6.932;2023-12-07T18:49:39;101690.89;;;14.16;64.30
65659;BME280;60181;53.258;6.932;2023-12-07T18:53:51;101687.27;;;14.15;64.59
65659;BME280;60181;53.258;6.932;2023-12-07T18:58:03;101682.87;;;14.15;64.32
65659;BME280;60181;53.258;6.932;2023-12-07T19:02:15;101676.93;;;14.15;64.31
65659;BME280;60181;53.258;6.932;2023-12-07T19:06:27;101670.84;;;14.15;64.24
65659;BME280;60181;53.258;6.932;2023-12-07T19:10:41;101663.40;;;14.13;64.16
65659;BME280;60181;53.258;6.932;2023-12-07T19:14:51;101659.50;;;14.13;64.09
65659;BME280;60181;53.258;6.932;2023-12-07T19:19:03;101658.51;;;14.12;64.16
65659;BME280;60181;53.258;6.932;2023-12-07T19:23:15;101657.48;;;14.12;64.16
65659;BME280;60181;53.258;6.932;2023-12-07T19:27:27;101652.46;;;14.11;64.21
65659;BME280;60181;53.258;6.932;2023-12-07T19:31:40;101646.91;;;14.10;64.25
65659;BME280;60181;53.258;6.932;2023-12-07T19:35:51;101641.94;;;14.10;63.95
65659;BME280;60181;53.258;6.932;2023-12-07T19:40:03;101636.25;;;14.09;64.21
65659;BME280;60181;53.258;6.932;2023-12-07T19:44:15;101631.73;;;14.09;64.16
65659;BME280;60181;53.258;6.932;2023-12-07T19:48:27;101629.14;;;14.08;64.08
65659;BME280;60181;53.258;6.932;2023-12-07T19:52:39;101627.25;;;14.08;63.97
65659;BME280;60181;53.258;6.932;2023-12-07T19:56:54;101625.68;;;14.08;63.98
65659;BME280;60181;53.258;6.932;2023-12-07T20:01:03;101623.38;;;14.08;63.89
65659;BME280;60181;53.258;6.932;2023-12-07T20:05:15;101618.24;;;14.07;63.97
65659;BME280;60181;53.258;6.932;2023-12-07T20:09:27;101611.65;;;14.07;63.99
65659;BME280;60181;53.258;6.932;2023-12-07T20:13:39;101605.39;;;14.07;64.04
65659;BME280;60181;53.258;6.932;2023-12-07T20:17:51;101600.28;;;14.07;64.00
65659;BME280;60181;53.258;6.932;2023-12-07T20:22:03;101596.08;;;14.07;64.08
65659;BME280;60181;53.258;6.932;2023-12-07T20:26:15;101592.29;;;14.07;63.91
65659;BME280;60181;53.258;6.932;2023-12-07T20:30:27;101586.03;;;14.07;63.88
65659;BME280;60181;53.258;6.932;2023-12-07T20:34:39;101578.12;;;14.07;63.82
65659;BME280;60181;53.258;6.932;2023-12-07T20:38:51;101569.06;;;14.07;63.87
65659;BME280;60181;53.258;6.932;2023-12-07T20:43:03;101559.17;;;14.07;63.88
65659;BME280;60181;53.258;6.932;2023-12-07T20:47:15;101552.25;;;14.07;63.78
65659;BME280;60181;53.258;6.932;2023-12-07T20:51:27;101544.64;;;14.06;63.83
65659;BME280;60181;53.258;6.932;2023-12-07T20:55:39;101539.20;;;14.06;64.52
65659;BME280;60181;53.258;6.932;2023-12-07T20:59:51;101532.84;;;14.08;64.80
65659;BME280;60181;53.258;6.932;2023-12-07T21:04:03;101524.96;;;14.12;65.45
65659;BME280;60181;53.258;6.932;2023-12-07T21:08:15;101518.86;;;14.16;65.40
65659;BME280;60181;53.258;6.932;2023-12-07T21:12:27;101513.45;;;14.20;65.52
65659;BME280;60181;53.258;6.932;2023-12-07T21:16:39;101507.03;;;14.24;65.15
65659;BME280;60181;53.258;6.932;2023-12-07T21:20:51;101501.75;;;14.27;65.23
65659;BME280;60181;53.258;6.932;2023-12-07T21:25:03;101496.44;;;14.29;65.20
65659;BME280;60181;53.258;6.932;2023-12-07T21:29:15;101490.89;;;14.31;65.32
65659;BME280;60181;53.258;6.932;2023-12-07T21:33:27;101484.36;;;14.33;65.12
65659;BME280;60181;53.258;6.932;2023-12-07T21:37:39;101477.62;;;14.35;64.61
65659;BME280;60181;53.258;6.932;2023-12-07T21:41:51;101472.40;;;14.36;64.29
65659;BME280;60181;53.258;6.932;2023-12-07T21:46:03;101466.49;;;14.38;64.20
65659;BME280;60181;53.258;6.932;2023-12-07T21:50:15;101457.51;;;14.38;64.12
65659;BME280;60181;53.258;6.932;2023-12-07T21:54:27;101447.73;;;14.39;64.19
65659;BME280;60181;53.258;6.932;2023-12-07T21:58:39;101437.50;;;14.40;63.97